Kedves Pilóták, Oktatók, Növendékek!

Az alábbi menüpontban szeretnénk összefoglalni néhány fontos és hasznos információt, linket, amely segíthet a repülések megtervezésében.

Ha bármilyen javaslatod van a tartalommal kapcsolatban, kérlek Ez az e-mail-cím a szpemrobotok elleni védelem alatt áll. Megtekintéséhez engedélyeznie kell a JavaScript használatát.meg nekünk.

 

Jó leszállást!

Repüléssel kapcsolatos hírek

2019. június 18.

IHO.hu - - Repülés RSS

Felhőkép 

Felhőkép

Széltérkép

Széltérkép

Győr-Pér Repülőtér

Élő webkamera kép

 Nagyobb kép

Győr-Pér Repülőtér

[Source: ADDS]
METAR
LHPR 182245Z AUTO 10004KT 080V140 CAVOK 17/16 Q1015 =
LHPR 181715Z 1818/1903 15003KT CAVOK PROB30 TEMPO 1818/1903 VRB15G25KT 4000 SHRA TSRA BKN043CB BKN080
TAF
LHPR 181715Z 1818/1903 15003KT CAVOK PROB30 TEMPO 1818/1903 VRB15G25KT 4000 SHRA TSRA BKN043CB BKN080 =
SR / SS: 02:50 / 18:49 UTC (Napkelte / Napnyugta 2019-06-19)

Kapcsolat

Telephely:     9099 Pér, Repülõtér

Klubhelyiség: 9021 Gyõr, Városház tér 3.

E-mail: info@aeroclub-gyor.hu

Telefon: 06-20-777-9106

Adószám: 19113832-2-08

  
Joomla űrlapépítő by JoomlaShine
JSN Metro template designed by JoomlaShine.com